createdAt,value
2018-12-21T00:00:52.221Z,1008.00
2018-12-21T00:01:52.223Z,1008.00
2018-12-21T00:02:52.198Z,1007.97
2018-12-21T00:03:52.187Z,1007.95
2018-12-21T00:04:52.176Z,1007.92
2018-12-21T00:05:52.198Z,1007.94
2018-12-21T00:06:52.155Z,1007.80
2018-12-21T00:07:52.161Z,1007.90
2018-12-21T00:08:52.142Z,1007.84
2018-12-21T00:09:52.125Z,1007.83
2018-12-21T00:10:52.136Z,1007.82
2018-12-21T00:11:52.100Z,1007.72
2018-12-21T00:12:52.085Z,1007.74
2018-12-21T00:13:52.076Z,1007.66
2018-12-21T00:14:52.062Z,1007.72
2018-12-21T00:15:52.072Z,1007.64
2018-12-21T00:16:52.083Z,1007.66
2018-12-21T00:17:52.032Z,1007.64
2018-12-21T00:18:52.023Z,1007.65
2018-12-21T00:19:52.006Z,1007.55
2018-12-21T00:20:52.014Z,1007.70
2018-12-21T00:21:51.985Z,1007.58
2018-12-21T00:22:52.011Z,1007.58
2018-12-21T00:23:51.967Z,1007.56
2018-12-21T00:24:51.953Z,1007.58
2018-12-21T00:25:51.946Z,1007.56
2018-12-21T00:26:51.928Z,1007.51
2018-12-21T00:27:51.955Z,1007.57
2018-12-21T00:28:51.921Z,1007.50
2018-12-21T00:29:51.906Z,1007.54
2018-12-21T00:30:51.882Z,1007.53
2018-12-21T00:31:51.913Z,1007.51
2018-12-21T00:32:51.867Z,1007.50
2018-12-21T00:33:51.852Z,1007.46
2018-12-21T00:34:51.847Z,1007.57
2018-12-21T00:35:51.860Z,1007.55
2018-12-21T00:36:51.905Z,1007.50
2018-12-21T00:37:51.843Z,1007.49
2018-12-21T00:38:51.794Z,1007.42
2018-12-21T00:39:51.800Z,1007.43
2018-12-21T00:40:51.781Z,1007.45
2018-12-21T00:41:51.761Z,1007.47
2018-12-21T00:42:51.912Z,1007.43
2018-12-21T00:43:51.755Z,1007.42
2018-12-21T00:44:51.737Z,1007.45
2018-12-21T00:45:51.724Z,1007.39
2018-12-21T00:46:51.710Z,1007.37
2018-12-21T00:47:51.736Z,1007.32
2018-12-21T00:48:51.683Z,1007.40
2018-12-21T00:49:51.672Z,1007.45
2018-12-21T00:50:51.659Z,1007.41
2018-12-21T00:51:51.651Z,1007.38
2018-12-21T00:52:51.787Z,1007.27
2018-12-21T00:53:51.633Z,1007.31
2018-12-21T00:54:51.631Z,1007.30
2018-12-21T00:55:51.621Z,1007.36
2018-12-21T00:56:51.592Z,1007.31
2018-12-21T00:57:51.585Z,1007.33
2018-12-21T00:58:51.650Z,1007.27
2018-12-21T00:59:51.565Z,1007.31
2018-12-21T01:00:51.552Z,1007.28
2018-12-21T01:01:51.535Z,1007.25
2018-12-21T01:02:51.527Z,1007.23
2018-12-21T01:03:51.512Z,1007.27
2018-12-21T01:04:51.548Z,1007.27
2018-12-21T01:05:51.492Z,1007.26
2018-12-21T01:06:51.491Z,1007.29
2018-12-21T01:07:51.476Z,1007.30
2018-12-21T01:08:51.465Z,1007.26
2018-12-21T01:09:51.445Z,1007.19
2018-12-21T01:10:51.469Z,1007.23
2018-12-21T01:11:51.427Z,1007.21
2018-12-21T01:12:51.415Z,1007.21
2018-12-21T01:13:51.420Z,1007.24
2018-12-21T01:14:51.392Z,1007.14
2018-12-21T01:15:51.379Z,1007.20
2018-12-21T01:16:51.461Z,1007.12
2018-12-21T01:17:51.354Z,1007.17
2018-12-21T01:18:51.347Z,1007.15
2018-12-21T01:19:51.346Z,1007.09
2018-12-21T01:20:51.321Z,1007.09
2018-12-21T01:21:51.335Z,1007.05
2018-12-21T01:22:51.308Z,1006.97
2018-12-21T01:23:51.298Z,1007.01
2018-12-21T01:24:51.283Z,1007.03
2018-12-21T01:25:51.320Z,1007.02
2018-12-21T01:26:51.290Z,1006.99
2018-12-21T01:27:51.246Z,1006.97
2018-12-21T01:28:51.233Z,1007.02
2018-12-21T01:29:51.229Z,1006.93
2018-12-21T01:30:51.213Z,1006.93
2018-12-21T01:31:51.229Z,1006.98
2018-12-21T01:32:51.195Z,1006.89
2018-12-21T01:33:51.198Z,1006.88
2018-12-21T01:34:51.166Z,1006.95
2018-12-21T01:35:51.156Z,1006.97
2018-12-21T01:36:51.280Z,1006.96
2018-12-21T01:37:51.133Z,1006.89
2018-12-21T01:38:51.122Z,1006.90
2018-12-21T01:39:51.109Z,1006.89
2018-12-21T01:40:51.100Z,1006.86
2018-12-21T01:41:51.161Z,1006.94
2018-12-21T01:42:51.109Z,1006.83
2018-12-21T01:43:51.070Z,1006.83
2018-12-21T01:44:51.077Z,1006.77
2018-12-21T01:45:51.039Z,1006.84
2018-12-21T01:46:51.038Z,1006.76
2018-12-21T01:47:51.053Z,1006.71
2018-12-21T01:48:51.038Z,1006.72
2018-12-21T01:49:51.003Z,1006.63
2018-12-21T01:50:50.994Z,1006.66
2018-12-21T01:51:50.972Z,1006.66
2018-12-21T01:52:50.965Z,1006.63
2018-12-21T01:53:50.994Z,1006.71
2018-12-21T01:54:50.945Z,1006.63
2018-12-21T01:55:50.931Z,1006.62
2018-12-21T01:56:50.975Z,1006.53
2018-12-21T01:57:50.908Z,1006.53
2018-12-21T01:58:50.926Z,1006.52
2018-12-21T01:59:50.891Z,1006.45
2018-12-21T02:00:50.881Z,1006.55
2018-12-21T02:01:50.863Z,1006.43
2018-12-21T02:02:50.864Z,1006.43
2018-12-21T02:03:50.869Z,1006.37
2018-12-21T02:04:50.844Z,1006.38
2018-12-21T02:05:50.824Z,1006.38
2018-12-21T02:06:50.819Z,1006.36
2018-12-21T02:07:50.796Z,1006.32
2018-12-21T02:08:50.788Z,1006.32
2018-12-21T02:09:51.786Z,1006.30
2018-12-21T02:10:50.761Z,1006.26
2018-12-21T02:11:50.752Z,1006.24
2018-12-21T02:12:50.750Z,1006.20
2018-12-21T02:13:50.731Z,1006.21
2018-12-21T02:14:50.724Z,1006.07
2018-12-21T02:15:50.769Z,1006.07
2018-12-21T02:16:50.695Z,1006.03
2018-12-21T02:17:50.687Z,1006.15
2018-12-21T02:18:50.672Z,1006.08
2018-12-21T02:19:50.663Z,1006.10
2018-12-21T02:20:50.706Z,1006.08
2018-12-21T02:21:55.853Z,1006.02
2018-12-21T02:22:51.629Z,1006.07
2018-12-21T02:23:50.619Z,1006.06
2018-12-21T02:24:50.611Z,1006.06
2018-12-21T02:25:50.599Z,1006.01
2018-12-21T02:26:50.642Z,1006.00
2018-12-21T02:27:50.679Z,1005.92
2018-12-21T02:28:50.569Z,1005.92
2018-12-21T02:29:50.557Z,1005.91
2018-12-21T02:30:50.541Z,1005.85
2018-12-21T02:31:50.535Z,1005.86
2018-12-21T02:32:50.556Z,1005.86
2018-12-21T02:33:50.509Z,1005.85
2018-12-21T02:34:50.503Z,1005.89
2018-12-21T02:35:50.488Z,1005.81
2018-12-21T02:36:50.476Z,1005.86
2018-12-21T02:37:50.499Z,1005.74
2018-12-21T02:38:50.459Z,1005.81
2018-12-21T02:39:50.442Z,1005.77
2018-12-21T02:40:50.430Z,1005.80
2018-12-21T02:41:50.418Z,1005.79
2018-12-21T02:42:50.422Z,1005.73
2018-12-21T02:43:50.421Z,1005.73
2018-12-21T02:44:50.386Z,1005.71
2018-12-21T02:45:50.383Z,1005.69
2018-12-21T02:46:50.375Z,1005.73
2018-12-21T02:47:50.356Z,1005.65
2018-12-21T02:48:50.385Z,1005.70
2018-12-21T02:49:50.332Z,1005.69
2018-12-21T02:50:50.321Z,1005.66
2018-12-21T02:51:50.311Z,1005.69
2018-12-21T02:52:50.307Z,1005.61
2018-12-21T02:53:50.307Z,1005.58
2018-12-21T02:54:50.301Z,1005.54
2018-12-21T02:55:50.263Z,1005.54
2018-12-21T02:56:50.827Z,1005.51
2018-12-21T02:57:50.242Z,1005.47
2018-12-21T02:58:50.230Z,1005.46
2018-12-21T02:59:50.254Z,1005.44
2018-12-21T03:00:50.203Z,1005.43
2018-12-21T03:01:50.201Z,1005.40
2018-12-21T03:02:50.185Z,1005.42
2018-12-21T03:03:50.186Z,1005.36
2018-12-21T03:04:50.187Z,1005.38
2018-12-21T03:05:50.169Z,1005.31
2018-12-21T03:06:50.149Z,1005.31
2018-12-21T03:07:50.129Z,1005.28
2018-12-21T03:08:50.796Z,1005.24
2018-12-21T03:09:50.104Z,1005.22
2018-12-21T03:10:50.130Z,1005.25
2018-12-21T03:11:50.104Z,1005.20
2018-12-21T03:12:50.075Z,1005.21
2018-12-21T03:13:50.061Z,1005.22
2018-12-21T03:14:50.058Z,1005.24
2018-12-21T03:15:50.068Z,1005.21
2018-12-21T03:16:50.029Z,1005.19
2018-12-21T03:17:50.022Z,1005.17
2018-12-21T03:18:50.006Z,1005.13
2018-12-21T03:19:49.997Z,1005.17
2018-12-21T03:20:49.982Z,1005.11
2018-12-21T03:21:50.107Z,1005.11
2018-12-21T03:22:49.959Z,1005.08
2018-12-21T03:23:49.963Z,1005.12
2018-12-21T03:24:49.936Z,1005.13
2018-12-21T03:25:49.931Z,1005.13
2018-12-21T03:26:49.957Z,1005.17
2018-12-21T03:27:49.906Z,1005.06
2018-12-21T03:28:49.895Z,1005.08
2018-12-21T03:29:49.881Z,1005.05
2018-12-21T03:30:49.877Z,1005.01
2018-12-21T03:31:49.863Z,1005.00
2018-12-21T03:32:49.899Z,1004.96
2018-12-21T03:33:49.839Z,1005.07
2018-12-21T03:34:49.835Z,1005.00
2018-12-21T03:35:49.911Z,1005.12
2018-12-21T03:36:49.808Z,1005.02
2018-12-21T03:37:49.849Z,1004.94
2018-12-21T03:38:49.795Z,1004.97
2018-12-21T03:39:49.775Z,1004.94
2018-12-21T03:40:49.759Z,1004.89
2018-12-21T03:41:49.752Z,1004.89
2018-12-21T03:42:49.765Z,1004.84
2018-12-21T03:43:49.728Z,1004.77
2018-12-21T03:44:49.717Z,1004.79
2018-12-21T03:45:49.711Z,1004.80
2018-12-21T03:46:49.691Z,1004.67
2018-12-21T03:47:49.721Z,1004.61
2018-12-21T03:48:49.676Z,1004.55
2018-12-21T03:49:49.662Z,1004.51
2018-12-21T03:50:49.659Z,1004.49
2018-12-21T03:51:49.639Z,1004.47
2018-12-21T03:52:49.627Z,1004.45
2018-12-21T03:53:49.679Z,1004.41
2018-12-21T03:54:49.654Z,1004.37
2018-12-21T03:55:49.604Z,1004.35
2018-12-21T03:56:49.584Z,1004.27
2018-12-21T03:57:49.582Z,1004.23
2018-12-21T03:58:49.585Z,1004.22
2018-12-21T03:59:49.584Z,1004.15
2018-12-21T04:00:49.535Z,1004.10
2018-12-21T04:01:49.527Z,1004.08
2018-12-21T04:02:49.516Z,1004.06
2018-12-21T04:03:49.518Z,1004.04
2018-12-21T04:04:49.528Z,1003.96
2018-12-21T04:05:49.482Z,1003.88
2018-12-21T04:06:49.466Z,1003.88
2018-12-21T04:07:49.460Z,1003.83
2018-12-21T04:08:49.448Z,1003.80
2018-12-21T04:09:49.476Z,1003.76
2018-12-21T04:10:49.435Z,1003.75
2018-12-21T04:11:49.414Z,1003.63
2018-12-21T04:12:49.405Z,1003.59
2018-12-21T04:13:49.396Z,1003.58
2018-12-21T04:14:49.384Z,1003.59
2018-12-21T04:15:49.458Z,1003.53
2018-12-21T04:16:49.362Z,1003.49
2018-12-21T04:17:49.362Z,1003.51
2018-12-21T04:18:49.343Z,1003.51
2018-12-21T04:19:49.327Z,1003.49
2018-12-21T04:20:49.336Z,1003.41
2018-12-21T04:21:49.303Z,1003.44
2018-12-21T04:22:49.290Z,1003.43
2018-12-21T04:23:49.293Z,1003.46
2018-12-21T04:24:49.268Z,1003.43
2018-12-21T04:25:49.301Z,1003.42
2018-12-21T04:26:49.250Z,1003.45
2018-12-21T04:27:49.233Z,1003.39
2018-12-21T04:28:49.228Z,1003.30
2018-12-21T04:29:49.209Z,1003.24
2018-12-21T04:30:49.209Z,1003.17
2018-12-21T04:31:49.314Z,1003.20
2018-12-21T04:32:49.179Z,1003.19
2018-12-21T04:33:49.172Z,1003.19
2018-12-21T04:34:49.154Z,1003.17
2018-12-21T04:35:49.161Z,1003.15
2018-12-21T04:36:49.184Z,1003.20
2018-12-21T04:37:49.134Z,1003.20
2018-12-21T04:38:49.111Z,1003.16
2018-12-21T04:39:49.096Z,1003.12
2018-12-21T04:40:49.085Z,1003.04
2018-12-21T04:41:49.075Z,1003.08
2018-12-21T04:42:49.129Z,1003.16
2018-12-21T04:43:49.055Z,1003.12
2018-12-21T04:44:49.045Z,1003.07
2018-12-21T04:45:49.048Z,1003.16
2018-12-21T04:46:49.021Z,1003.12
2018-12-21T04:47:49.020Z,1003.21
2018-12-21T04:48:49.027Z,1003.14
2018-12-21T04:49:48.986Z,1003.17
2018-12-21T04:50:48.976Z,1003.16
2018-12-21T04:51:48.976Z,1003.13
2018-12-21T04:52:48.966Z,1003.10
2018-12-21T04:53:48.985Z,1003.15
2018-12-21T04:54:48.941Z,1003.13
2018-12-21T04:55:48.920Z,1003.17
2018-12-21T04:56:48.908Z,1003.14
2018-12-21T04:57:48.895Z,1003.14
2018-12-21T04:58:48.886Z,1003.15
2018-12-21T04:59:48.905Z,1003.11
2018-12-21T05:00:48.863Z,1003.14
2018-12-21T05:01:48.854Z,1003.18
2018-12-21T05:02:48.864Z,1003.10
2018-12-21T05:03:48.869Z,1003.04
2018-12-21T05:04:48.846Z,1002.99
2018-12-21T05:05:48.806Z,1002.99
2018-12-21T05:06:48.800Z,1003.01
2018-12-21T05:07:48.783Z,1002.94
2018-12-21T05:08:48.781Z,1002.91
2018-12-21T05:09:48.799Z,1002.85
2018-12-21T05:10:48.775Z,1002.81
2018-12-21T05:11:48.803Z,1002.80
2018-12-21T05:12:48.725Z,1002.78
2018-12-21T05:13:48.736Z,1002.72
2018-12-21T05:14:48.703Z,1002.66
2018-12-21T05:15:48.742Z,1002.72
2018-12-21T05:16:48.685Z,1002.65
2018-12-21T05:17:48.674Z,1002.64
2018-12-21T05:18:48.665Z,1002.59
2018-12-21T05:19:48.654Z,1002.52
2018-12-21T05:20:48.666Z,1002.59
2018-12-21T05:21:48.626Z,1002.50
2018-12-21T05:22:52.383Z,1002.46
2018-12-21T05:23:48.626Z,1002.51
2018-12-21T05:24:48.596Z,1002.60
2018-12-21T05:25:48.582Z,1002.49
2018-12-21T05:26:48.602Z,1002.45
2018-12-21T05:27:48.624Z,1002.41
2018-12-21T05:28:48.551Z,1002.18
2018-12-21T05:29:48.545Z,1002.25
2018-12-21T05:30:48.543Z,1002.21
2018-12-21T05:31:48.526Z,1002.27
2018-12-21T05:32:48.551Z,1002.22
2018-12-21T05:33:48.504Z,1002.19
2018-12-21T05:34:49.903Z,1002.20
2018-12-21T05:35:48.492Z,1002.09
2018-12-21T05:36:48.469Z,1002.08
2018-12-21T05:37:48.477Z,1002.07
2018-12-21T05:38:48.437Z,1002.00
2018-12-21T05:39:48.427Z,1001.95
2018-12-21T05:40:48.417Z,1001.89
2018-12-21T05:41:48.402Z,1001.83
2018-12-21T05:42:48.393Z,1001.76
2018-12-21T05:43:48.474Z,1001.82
2018-12-21T05:44:48.377Z,1001.65
2018-12-21T05:45:48.359Z,1001.70
2018-12-21T05:46:48.349Z,1001.65
2018-12-21T05:47:48.339Z,1001.70
2018-12-21T05:48:48.330Z,1001.64
2018-12-21T05:49:48.347Z,1001.59
2018-12-21T05:50:48.330Z,1001.51
2018-12-21T05:51:48.307Z,1001.48
2018-12-21T05:52:48.285Z,1001.47
2018-12-21T05:53:48.268Z,1001.44
2018-12-21T05:54:48.314Z,1001.38
2018-12-21T05:55:48.250Z,1001.32
2018-12-21T05:56:48.236Z,1001.28
2018-12-21T05:57:48.228Z,1001.27
2018-12-21T05:58:48.218Z,1001.25
2018-12-21T05:59:48.221Z,1001.28
2018-12-21T06:00:48.237Z,1001.16
2018-12-21T06:01:48.184Z,1001.13
2018-12-21T06:02:48.170Z,1001.11
2018-12-21T06:03:48.161Z,1000.98
2018-12-21T06:04:48.153Z,1000.95
2018-12-21T06:05:48.145Z,1000.98
2018-12-21T06:06:48.169Z,1000.95
2018-12-21T06:07:48.139Z,1000.86
2018-12-21T06:08:48.103Z,1000.87
2018-12-21T06:09:48.094Z,1000.88
2018-12-21T06:10:48.097Z,1000.84
2018-12-21T06:11:48.135Z,1000.77
2018-12-21T06:12:48.059Z,1000.73
2018-12-21T06:13:48.068Z,1000.63
2018-12-21T06:14:48.045Z,1000.59
2018-12-21T06:15:48.026Z,1000.59
2018-12-21T06:16:48.043Z,1000.57
2018-12-21T06:17:48.006Z,1000.49
2018-12-21T06:18:47.991Z,1000.52
2018-12-21T06:19:47.986Z,1000.50
2018-12-21T06:20:47.966Z,1000.40
2018-12-21T06:21:47.990Z,1000.33
2018-12-21T06:22:47.949Z,1000.24
2018-12-21T06:23:48.020Z,1000.25
2018-12-21T06:24:47.925Z,1000.18
2018-12-21T06:25:47.914Z,1000.22
2018-12-21T06:26:47.921Z,1000.13
2018-12-21T06:27:47.945Z,1000.14
2018-12-21T06:28:47.880Z,1000.21
2018-12-21T06:29:47.873Z,1000.05
2018-12-21T06:30:47.866Z,1000.10
2018-12-21T06:31:47.871Z,1000.15
2018-12-21T06:32:47.886Z,999.97
2018-12-21T06:33:47.832Z,1000.12
2018-12-21T06:34:47.839Z,999.99
2018-12-21T06:35:47.801Z,999.97
2018-12-21T06:36:47.823Z,1000.05
2018-12-21T06:37:48.598Z,999.99
2018-12-21T06:38:47.774Z,999.90
2018-12-21T06:39:47.837Z,999.85
2018-12-21T06:40:47.756Z,999.80
2018-12-21T06:41:47.738Z,999.83
2018-12-21T06:42:47.864Z,999.82
2018-12-21T06:43:47.726Z,999.80
2018-12-21T06:44:47.699Z,999.88
2018-12-21T06:45:47.695Z,999.89
2018-12-21T06:46:47.682Z,999.79
2018-12-21T06:47:47.776Z,999.83
2018-12-21T06:48:47.685Z,999.78
2018-12-21T06:49:47.698Z,999.79
2018-12-21T06:50:47.637Z,999.76
2018-12-21T06:51:47.640Z,999.69
2018-12-21T06:52:47.610Z,999.71
2018-12-21T06:53:47.714Z,999.63
2018-12-21T06:54:47.590Z,999.65
2018-12-21T06:55:47.582Z,999.56
2018-12-21T06:56:47.565Z,999.52
2018-12-21T06:57:47.597Z,999.50
2018-12-21T06:58:47.550Z,999.48
2018-12-21T06:59:47.532Z,999.47
2018-12-21T07:00:47.526Z,999.47
2018-12-21T07:01:47.511Z,999.45
2018-12-21T07:02:47.504Z,999.37
2018-12-21T07:03:47.517Z,999.42
2018-12-21T07:04:47.479Z,999.35
2018-12-21T07:05:47.471Z,999.35
2018-12-21T07:06:47.507Z,999.50
2018-12-21T07:07:47.453Z,999.39
2018-12-21T07:08:47.463Z,999.42
2018-12-21T07:09:47.452Z,999.41
2018-12-21T07:10:47.416Z,999.26
2018-12-21T07:11:47.403Z,999.33
2018-12-21T07:12:47.388Z,999.31
2018-12-21T07:13:47.378Z,999.27
2018-12-21T07:14:47.397Z,999.35
2018-12-21T07:15:47.358Z,999.26
2018-12-21T07:16:47.345Z,999.23
2018-12-21T07:17:47.341Z,999.30
2018-12-21T07:18:47.325Z,999.23
2018-12-21T07:19:47.309Z,999.22
2018-12-21T07:20:47.324Z,999.20
2018-12-21T07:21:47.286Z,999.16
2018-12-21T07:22:47.344Z,999.13
2018-12-21T07:23:47.270Z,999.13
2018-12-21T07:24:47.260Z,999.07
2018-12-21T07:25:47.302Z,999.05
2018-12-21T07:26:47.244Z,998.98
2018-12-21T07:27:47.226Z,998.99
2018-12-21T07:28:47.209Z,998.99
2018-12-21T07:29:47.201Z,998.93
2018-12-21T07:30:47.200Z,999.00
2018-12-21T07:31:47.240Z,998.97
2018-12-21T07:32:47.172Z,998.94
2018-12-21T07:33:47.157Z,998.96
2018-12-21T07:34:47.157Z,999.01
2018-12-21T07:35:47.135Z,998.92
2018-12-21T07:36:47.123Z,998.96
2018-12-21T07:37:47.154Z,998.81
2018-12-21T07:38:47.110Z,998.82
2018-12-21T07:39:47.088Z,998.71
2018-12-21T07:40:47.105Z,998.73
2018-12-21T07:41:47.063Z,998.57
2018-12-21T07:42:47.083Z,998.57
2018-12-21T07:43:47.049Z,998.48
2018-12-21T07:44:47.033Z,998.55
2018-12-21T07:45:47.028Z,998.48
2018-12-21T07:46:47.012Z,998.40
2018-12-21T07:47:47.015Z,998.50
2018-12-21T07:48:47.050Z,998.44
2018-12-21T07:49:46.982Z,998.35
2018-12-21T07:50:46.963Z,998.35
2018-12-21T07:51:46.964Z,998.37
2018-12-21T07:52:46.946Z,998.39
2018-12-21T07:53:46.968Z,998.41
2018-12-21T07:54:46.956Z,998.39
2018-12-21T07:55:46.914Z,998.39
2018-12-21T07:56:46.903Z,998.31
2018-12-21T07:57:46.900Z,998.30
2018-12-21T07:58:46.872Z,998.32
2018-12-21T07:59:46.939Z,998.29
2018-12-21T08:00:46.851Z,998.24
2018-12-21T08:01:46.851Z,998.24
2018-12-21T08:02:46.833Z,998.19
2018-12-21T08:03:46.822Z,998.23
2018-12-21T08:04:46.806Z,998.15
2018-12-21T08:05:46.823Z,998.09
2018-12-21T08:06:46.804Z,998.10
2018-12-21T08:07:46.771Z,998.07
2018-12-21T08:08:46.759Z,998.05
2018-12-21T08:09:46.751Z,997.98
2018-12-21T08:10:46.774Z,997.92
2018-12-21T08:11:46.734Z,997.90
2018-12-21T08:12:46.713Z,997.86
2018-12-21T08:13:46.707Z,997.86
2018-12-21T08:14:46.690Z,997.83
2018-12-21T08:15:46.684Z,997.81
2018-12-21T08:16:46.723Z,997.73
2018-12-21T08:17:46.660Z,997.68
2018-12-21T08:18:46.655Z,997.68
2018-12-21T08:19:46.639Z,997.64
2018-12-21T08:20:46.675Z,997.74
2018-12-21T08:21:46.612Z,997.60
2018-12-21T08:22:46.612Z,997.62
2018-12-21T08:23:46.599Z,997.64
2018-12-21T08:24:47.406Z,997.53
2018-12-21T08:25:46.574Z,997.50
2018-12-21T08:26:46.676Z,997.46
2018-12-21T08:27:46.546Z,997.43
2018-12-21T08:28:46.553Z,997.42
2018-12-21T08:29:46.527Z,997.42
2018-12-21T08:30:46.519Z,997.31
2018-12-21T08:31:46.584Z,997.28
2018-12-21T08:32:46.492Z,997.31
2018-12-21T08:33:46.482Z,997.28
2018-12-21T08:34:46.471Z,997.28
2018-12-21T08:35:46.462Z,997.18
2018-12-21T08:36:46.446Z,997.13
2018-12-21T08:37:46.638Z,997.13
2018-12-21T08:38:46.428Z,997.16
2018-12-21T08:39:46.490Z,997.11
2018-12-21T08:40:46.414Z,997.12
2018-12-21T08:41:46.394Z,997.05
2018-12-21T08:42:46.433Z,996.97
2018-12-21T08:43:46.372Z,996.96
2018-12-21T08:44:46.364Z,996.90
2018-12-21T08:45:46.351Z,996.83
2018-12-21T08:46:46.336Z,996.79
2018-12-21T08:47:46.328Z,996.93
2018-12-21T08:48:46.336Z,996.92
2018-12-21T08:49:46.298Z,996.89
2018-12-21T08:50:46.294Z,996.87
2018-12-21T08:51:46.285Z,996.87
2018-12-21T08:52:46.300Z,996.84
2018-12-21T08:53:52.477Z,996.79
2018-12-21T08:54:47.246Z,996.81
2018-12-21T08:55:46.235Z,996.76
2018-12-21T08:56:46.223Z,996.72
2018-12-21T08:57:46.208Z,996.70
2018-12-21T08:58:46.300Z,996.72
2018-12-21T08:59:46.190Z,996.65
2018-12-21T09:00:46.178Z,996.51
2018-12-21T09:01:46.164Z,996.64
2018-12-21T09:02:46.156Z,996.61
2018-12-21T09:03:46.186Z,996.59
2018-12-21T09:04:46.134Z,996.46
2018-12-21T09:05:46.132Z,996.43
2018-12-21T09:06:46.145Z,996.53
2018-12-21T09:07:46.101Z,996.51
2018-12-21T09:08:46.152Z,996.44
2018-12-21T09:09:46.082Z,996.44
2018-12-21T09:10:46.068Z,996.33
2018-12-21T09:11:46.055Z,996.43
2018-12-21T09:12:46.044Z,996.37
2018-12-21T09:13:46.095Z,996.39
2018-12-21T09:14:46.022Z,996.36
2018-12-21T09:15:46.016Z,996.39
2018-12-21T09:16:46.005Z,996.35
2018-12-21T09:17:45.993Z,996.27
2018-12-21T09:18:46.028Z,996.33
2018-12-21T09:19:45.962Z,996.36
2018-12-21T09:20:45.956Z,996.16
2018-12-21T09:21:45.947Z,996.24
2018-12-21T09:22:46.000Z,996.24
2018-12-21T09:23:46.001Z,996.21
2018-12-21T09:24:45.935Z,996.31
2018-12-21T09:25:45.896Z,996.34
2018-12-21T09:26:45.895Z,996.39
2018-12-21T09:27:45.885Z,996.34
2018-12-21T09:28:45.874Z,996.34
2018-12-21T09:29:45.911Z,996.28
2018-12-21T09:30:45.843Z,996.41
2018-12-21T09:31:45.833Z,996.32
2018-12-21T09:32:45.829Z,996.25
2018-12-21T09:33:45.812Z,996.25
2018-12-21T09:34:45.832Z,996.28
2018-12-21T09:35:45.876Z,996.19
2018-12-21T09:36:45.773Z,996.17
2018-12-21T09:37:45.765Z,996.15
2018-12-21T09:38:45.791Z,996.05
2018-12-21T09:39:45.744Z,996.08
2018-12-21T09:40:45.765Z,996.10
2018-12-21T09:41:45.716Z,996.19
2018-12-21T09:42:45.738Z,996.16
2018-12-21T09:43:45.698Z,996.24
2018-12-21T09:44:52.457Z,996.20
2018-12-21T09:45:46.704Z,996.28
2018-12-21T09:46:45.667Z,996.16
2018-12-21T09:47:45.653Z,996.11
2018-12-21T09:48:45.648Z,996.13
2018-12-21T09:49:45.630Z,996.11
2018-12-21T09:50:45.655Z,996.11
2018-12-21T09:51:45.603Z,996.03
2018-12-21T09:52:45.621Z,996.09
2018-12-21T09:53:45.596Z,996.04
2018-12-21T09:54:45.598Z,996.05
2018-12-21T09:55:45.650Z,995.97
2018-12-21T09:56:45.617Z,995.95
2018-12-21T09:57:45.537Z,996.00
2018-12-21T09:58:45.527Z,995.99
2018-12-21T09:59:45.517Z,996.01
2018-12-21T10:00:45.522Z,995.99
2018-12-21T10:01:45.501Z,996.02
2018-12-21T10:02:45.518Z,996.05
2018-12-21T10:03:45.491Z,995.97
2018-12-21T10:04:45.473Z,995.96
2018-12-21T10:05:45.455Z,995.88
2018-12-21T10:06:45.445Z,995.90
2018-12-21T10:07:45.470Z,995.86
2018-12-21T10:08:45.418Z,995.83
2018-12-21T10:09:45.410Z,995.79
2018-12-21T10:10:45.396Z,995.87
2018-12-21T10:11:45.471Z,995.91
2018-12-21T10:12:45.376Z,995.79
2018-12-21T10:13:45.391Z,995.89
2018-12-21T10:14:45.347Z,995.90
2018-12-21T10:15:45.339Z,995.83
2018-12-21T10:16:45.327Z,995.88
2018-12-21T10:17:45.326Z,995.83
2018-12-21T10:18:45.329Z,995.79
2018-12-21T10:19:45.325Z,995.81
2018-12-21T10:20:45.304Z,995.70
2018-12-21T10:21:45.275Z,995.73
2018-12-21T10:22:45.263Z,995.70
2018-12-21T10:23:45.255Z,995.83
2018-12-21T10:24:45.285Z,995.68
2018-12-21T10:25:45.228Z,995.71
2018-12-21T10:26:45.221Z,995.68
2018-12-21T10:27:45.215Z,995.68
2018-12-21T10:28:45.194Z,995.69
2018-12-21T10:29:45.221Z,995.66
2018-12-21T10:30:45.176Z,995.67
2018-12-21T10:31:45.163Z,995.61
2018-12-21T10:32:45.148Z,995.63
2018-12-21T10:33:45.153Z,995.60
2018-12-21T10:34:45.173Z,995.55
2018-12-21T10:35:45.155Z,995.58
2018-12-21T10:36:45.107Z,995.58
2018-12-21T10:37:45.098Z,995.54
2018-12-21T10:38:45.085Z,995.48
2018-12-21T10:39:45.113Z,995.56
2018-12-21T10:40:45.434Z,995.55
2018-12-21T10:41:45.051Z,995.51
2018-12-21T10:42:45.039Z,995.55
2018-12-21T10:43:45.040Z,995.54
2018-12-21T10:44:45.020Z,995.52
2018-12-21T10:45:45.061Z,995.48
2018-12-21T10:46:45.003Z,995.51
2018-12-21T10:47:44.994Z,995.53
2018-12-21T10:48:44.969Z,995.45
2018-12-21T10:49:44.959Z,995.42
2018-12-21T10:50:45.028Z,995.56
2018-12-21T10:51:44.942Z,995.54
2018-12-21T10:52:44.944Z,995.46
2018-12-21T10:53:46.711Z,995.53
2018-12-21T10:54:44.972Z,995.46
2018-12-21T10:55:44.906Z,995.46
2018-12-21T10:56:45.320Z,995.37
2018-12-21T10:57:44.868Z,995.33
2018-12-21T10:58:44.907Z,995.46
2018-12-21T10:59:44.939Z,995.42
2018-12-21T11:00:44.880Z,995.42
2018-12-21T11:01:44.824Z,995.37
2018-12-21T11:02:44.811Z,995.32
2018-12-21T11:03:44.851Z,995.43
2018-12-21T11:04:44.793Z,995.31
2018-12-21T11:05:44.782Z,995.36
2018-12-21T11:06:44.800Z,995.35
2018-12-21T11:07:44.761Z,995.39
2018-12-21T11:08:44.743Z,995.41
2018-12-21T11:09:44.736Z,995.43
2018-12-21T11:10:45.896Z,995.39
2018-12-21T11:11:44.757Z,995.39
2018-12-21T11:12:44.702Z,995.39
2018-12-21T11:13:44.695Z,995.50
2018-12-21T11:14:44.704Z,995.41
2018-12-21T11:15:44.670Z,995.35
2018-12-21T11:16:44.717Z,995.39
2018-12-21T11:17:44.695Z,995.35
2018-12-21T11:18:44.639Z,995.28
2018-12-21T11:19:44.624Z,995.33
2018-12-21T11:20:44.613Z,995.38
2018-12-21T11:21:44.604Z,995.30
2018-12-21T11:22:44.671Z,995.32
2018-12-21T11:23:44.584Z,995.30
2018-12-21T11:24:44.573Z,995.42
2018-12-21T11:25:44.568Z,995.39
2018-12-21T11:26:44.560Z,995.31
2018-12-21T11:27:44.536Z,995.44
2018-12-21T11:28:44.554Z,995.27
2018-12-21T11:29:44.513Z,995.30
2018-12-21T11:30:44.541Z,995.28
2018-12-21T11:31:44.491Z,995.25
2018-12-21T11:32:44.483Z,995.24
2018-12-21T11:33:44.521Z,995.31
2018-12-21T11:34:44.462Z,995.21
2018-12-21T11:35:44.462Z,995.26
2018-12-21T11:36:44.439Z,995.27
2018-12-21T11:37:44.430Z,995.14
2018-12-21T11:38:44.422Z,995.32
2018-12-21T11:39:44.535Z,995.30
2018-12-21T11:40:44.394Z,995.19
2018-12-21T11:41:44.379Z,995.11
2018-12-21T11:42:44.365Z,995.34
2018-12-21T11:43:44.393Z,995.20
2018-12-21T11:44:44.378Z,995.22
2018-12-21T11:45:44.336Z,995.17
2018-12-21T11:46:44.327Z,995.25
2018-12-21T11:47:44.314Z,995.25
2018-12-21T11:48:44.312Z,995.18
2018-12-21T11:49:44.309Z,995.17
2018-12-21T11:50:44.318Z,995.15
2018-12-21T11:51:44.269Z,995.14
2018-12-21T11:52:44.253Z,995.10
2018-12-21T11:53:44.252Z,995.17
2018-12-21T16:01:50.529Z,998.46
2018-12-21T16:02:50.497Z,998.45
2018-12-21T16:03:50.567Z,998.46
2018-12-21T16:04:50.476Z,998.51
2018-12-21T16:05:50.475Z,998.46
2018-12-21T16:43:56.627Z,999.26
2018-12-21T16:44:56.596Z,999.39
2018-12-21T16:45:56.577Z,999.14
2018-12-21T16:46:56.573Z,999.34
2018-12-21T16:47:56.583Z,999.28
2018-12-21T16:48:56.542Z,999.48
2018-12-21T16:49:56.528Z,999.48
2018-12-21T16:50:56.517Z,999.47
2018-12-21T16:52:03.556Z,999.51
2018-12-21T16:52:56.503Z,999.51
2018-12-21T16:53:56.547Z,999.51
2018-12-21T16:54:56.473Z,999.57
2018-12-21T16:55:56.511Z,999.55
2018-12-21T16:56:56.454Z,999.59
2018-12-21T16:59:06.151Z,999.64
2018-12-21T17:00:06.137Z,999.77
2018-12-21T17:01:06.157Z,999.72
2018-12-21T17:02:06.099Z,999.78